Santo Antonio do Descoberto, Brazil
Current Conditions -  °F | °C
As of 7:00 PM on Thursday 18 Dec 2014 (Local Time) from SBBR Reporting Station
Thunderstorm Thunderstorm  
Wind Chill: 75°   Ceiling: 8000
Heat Index: 75°   Visibility: 6mi
Dew Point: 64°   Wind: 6mph
Humidity: 69%   Direction: 330°NNW
Pressure: NA   Gusts: NA
Location:  15.94°S, 48.25°W
Report Text: SBBR 182100Z 33005KT 9999 VCTS SCT020 FEW035CB BKN080 24/18 Q1014
Loading
Personal Weather Stations






























Interactive Weather Map New forecast layout! Learn more

10-Day Weather Forecast

Advertisements
Track Severe Weather on mobile